createdAt,value
2023-03-05T00:25:40.581Z,3.8
2023-03-05T00:35:41.101Z,3.6
2023-03-05T00:45:48.855Z,3.4
2023-03-05T00:55:42.333Z,3.3
2023-03-05T01:16:22.942Z,3.3
2023-03-05T01:25:43.687Z,3.3
2023-03-05T01:35:51.092Z,3.3
2023-03-05T01:45:51.891Z,3.3
2023-03-05T01:55:54.357Z,3.2
2023-03-05T02:15:53.764Z,3.1
2023-03-05T02:45:55.067Z,3
2023-03-05T02:55:48.341Z,3
2023-03-05T03:05:55.972Z,3
2023-03-05T03:15:49.220Z,2.9
2023-03-05T03:35:50.217Z,2.9
2023-03-05T03:46:30.186Z,3
2023-03-05T03:55:50.720Z,2.9
2023-03-05T04:05:57.927Z,2.9
2023-03-05T04:25:51.374Z,2.8
2023-03-05T04:35:58.588Z,2.8
2023-03-05T04:46:31.718Z,2.8
2023-03-05T05:16:01.349Z,2.6
2023-03-05T05:25:54.763Z,2.6
2023-03-05T05:36:35.198Z,2.5
2023-03-05T05:46:03.132Z,2.5
2023-03-05T05:55:56.167Z,2.4
2023-03-05T06:05:56.828Z,2.5
2023-03-05T06:06:43.491Z,2.5
2023-03-05T06:16:10.096Z,2.5
2023-03-05T06:26:10.615Z,2.5
2023-03-05T06:46:11.358Z,2.2
2023-03-05T06:56:12.262Z,2.3
2023-03-05T07:06:19.565Z,2.4
2023-03-05T07:16:20.257Z,2.4
2023-03-05T07:26:13.241Z,2.6
2023-03-05T07:36:53.382Z,2.8
2023-03-05T07:46:21.084Z,2.9
2023-03-05T07:56:54.312Z,2.9
2023-03-05T08:06:15.624Z,2.9
2023-03-05T08:26:16.446Z,3.2
2023-03-05T08:56:17.928Z,3.3
2023-03-05T09:06:18.444Z,3.5
2023-03-05T09:16:58.206Z,3.5
2023-03-05T09:26:26.374Z,3.3
2023-03-05T09:56:20.839Z,3.5
2023-03-05T10:06:21.769Z,3.3
2023-03-05T10:16:22.771Z,2.8
2023-03-05T10:26:30.755Z,3
2023-03-05T11:06:25.179Z,3.9
2023-03-05T11:26:26.237Z,4
2023-03-05T11:36:27.116Z,4.4
2023-03-05T11:46:27.392Z,4.8
2023-03-05T11:56:35.406Z,4.7
2023-03-05T12:06:29.036Z,4.1
2023-03-05T12:16:36.430Z,3.6
2023-03-05T12:27:09.929Z,3.8
2023-03-05T12:37:10.319Z,4.3
2023-03-05T12:46:38.032Z,4.6
2023-03-05T13:07:12.081Z,5.7
2023-03-05T13:16:33.215Z,6.3
2023-03-05T13:26:41.058Z,6.3
2023-03-05T13:36:34.733Z,6.2
2023-03-05T13:46:41.849Z,6.3
2023-03-05T13:56:35.816Z,6.3
2023-03-05T14:06:43.753Z,6.4
2023-03-05T14:16:37.076Z,6.2
2023-03-05T14:26:44.447Z,6.2
2023-03-05T14:36:38.133Z,6.1
2023-03-05T14:46:39.006Z,6
2023-03-05T14:56:39.270Z,5.9
2023-03-05T15:16:40.386Z,5.7
2023-03-05T15:26:41.295Z,5.7
2023-03-05T15:36:42.222Z,5.5
2023-03-05T15:46:42.680Z,5.6
2023-03-05T15:57:23.090Z,5.5
2023-03-05T16:07:23.665Z,5.4
2023-03-05T16:16:44.608Z,5.4
2023-03-05T16:26:52.265Z,5.3
2023-03-05T16:36:45.336Z,5
2023-03-05T16:46:46.046Z,4.8
2023-03-05T16:57:26.189Z,4.6
2023-03-05T17:06:46.901Z,4.6
2023-03-05T17:26:47.997Z,4.3
2023-03-05T17:36:48.704Z,4.3
2023-03-05T17:46:49.683Z,4.2
2023-03-05T17:56:57.388Z,4.2
2023-03-05T18:06:50.856Z,4.1
2023-03-05T18:16:58.354Z,4
2023-03-05T18:46:53.042Z,3.9
2023-03-05T18:56:53.500Z,3.9
2023-03-05T19:16:54.865Z,3.9
2023-03-05T19:26:55.033Z,3.8
2023-03-05T19:36:55.957Z,3.6
2023-03-05T19:56:56.792Z,3.3
2023-03-05T20:06:57.203Z,3.1
2023-03-05T20:16:57.559Z,3.2
2023-03-05T20:26:57.950Z,3.1
2023-03-05T20:36:58.402Z,3.1
2023-03-05T20:46:58.835Z,3
2023-03-05T20:56:59.684Z,2.9
2023-03-05T21:07:06.687Z,2.9
2023-03-05T21:17:00.036Z,2.9
2023-03-05T21:27:00.684Z,2.9
2023-03-05T21:37:01.132Z,2.9
2023-03-05T21:47:01.411Z,2.8
2023-03-05T21:57:01.751Z,2.9
2023-03-05T22:17:09.408Z,2.9
2023-03-05T22:37:03.580Z,3.1
2023-03-05T22:47:03.919Z,3.2
2023-03-05T22:57:11.459Z,3.2
2023-03-05T23:07:12.446Z,3.2
2023-03-05T23:17:12.822Z,3.2
2023-03-05T23:27:06.284Z,3.2
2023-03-05T23:37:13.595Z,3.1
2023-03-05T23:47:46.311Z,3.1
2023-03-05T23:57:13.942Z,2.9
